sensor_id;sensor_type;location;lat;lon;timestamp;P1;durP1;ratioP1;P2;durP2;ratioP2
21014;SDS011;19207;-23.482;-46.500;2023-01-16T00:02:38;36.17;;;18.92;;
21014;SDS011;19207;-23.482;-46.500;2023-01-16T00:05:24;34.92;;;20.17;;
21014;SDS011;19207;-23.482;-46.500;2023-01-16T00:08:11;39.25;;;21.95;;
21014;SDS011;19207;-23.482;-46.500;2023-01-16T00:10:58;40.83;;;20.92;;
21014;SDS011;19207;-23.482;-46.500;2023-01-16T00:13:44;36.28;;;20.40;;
21014;SDS011;19207;-23.482;-46.500;2023-01-16T00:16:32;39.95;;;21.83;;
21014;SDS011;19207;-23.482;-46.500;2023-01-16T00:19:18;40.88;;;20.48;;
21014;SDS011;19207;-23.482;-46.500;2023-01-16T00:22:05;40.85;;;21.00;;
21014;SDS011;19207;-23.482;-46.500;2023-01-16T00:24:51;43.67;;;20.62;;
21014;SDS011;19207;-23.482;-46.500;2023-01-16T00:27:38;46.60;;;19.60;;
21014;SDS011;19207;-23.482;-46.500;2023-01-16T00:30:25;43.90;;;17.50;;
21014;SDS011;19207;-23.482;-46.500;2023-01-16T00:33:11;36.63;;;16.20;;
21014;SDS011;19207;-23.482;-46.500;2023-01-16T00:35:58;47.08;;;19.60;;
21014;SDS011;19207;-23.482;-46.500;2023-01-16T00:38:45;41.58;;;19.50;;
21014;SDS011;19207;-23.482;-46.500;2023-01-16T00:41:31;36.28;;;18.05;;
21014;SDS011;19207;-23.482;-46.500;2023-01-16T00:44:18;39.75;;;18.20;;
21014;SDS011;19207;-23.482;-46.500;2023-01-16T00:47:06;47.28;;;20.98;;
21014;SDS011;19207;-23.482;-46.500;2023-01-16T00:49:52;45.33;;;18.42;;
21014;SDS011;19207;-23.482;-46.500;2023-01-16T00:52:39;35.17;;;16.05;;
21014;SDS011;19207;-23.482;-46.500;2023-01-16T00:55:25;41.85;;;17.02;;
21014;SDS011;19207;-23.482;-46.500;2023-01-16T00:58:12;33.50;;;15.75;;
21014;SDS011;19207;-23.482;-46.500;2023-01-16T01:00:59;29.27;;;14.27;;
21014;SDS011;19207;-23.482;-46.500;2023-01-16T01:03:46;28.75;;;14.10;;
21014;SDS011;19207;-23.482;-46.500;2023-01-16T01:06:32;36.92;;;16.33;;
21014;SDS011;19207;-23.482;-46.500;2023-01-16T01:09:19;28.60;;;15.10;;
21014;SDS011;19207;-23.482;-46.500;2023-01-16T01:12:06;39.45;;;17.60;;
21014;SDS011;19207;-23.482;-46.500;2023-01-16T01:14:52;34.67;;;17.40;;
21014;SDS011;19207;-23.482;-46.500;2023-01-16T01:17:39;36.65;;;16.95;;
21014;SDS011;19207;-23.482;-46.500;2023-01-16T01:20:25;37.03;;;16.98;;
21014;SDS011;19207;-23.482;-46.500;2023-01-16T01:23:12;31.48;;;16.80;;
21014;SDS011;19207;-23.482;-46.500;2023-01-16T01:26:04;34.03;;;18.35;;
21014;SDS011;19207;-23.482;-46.500;2023-01-16T01:28:51;40.70;;;18.12;;
21014;SDS011;19207;-23.482;-46.500;2023-01-16T01:31:38;35.75;;;17.67;;
21014;SDS011;19207;-23.482;-46.500;2023-01-16T01:34:24;32.40;;;15.15;;
21014;SDS011;19207;-23.482;-46.500;2023-01-16T01:37:11;24.55;;;14.10;;
21014;SDS011;19207;-23.482;-46.500;2023-01-16T01:39:58;20.45;;;11.38;;
21014;SDS011;19207;-23.482;-46.500;2023-01-16T01:42:45;16.00;;;8.35;;
21014;SDS011;19207;-23.482;-46.500;2023-01-16T01:45:39;9.52;;;5.53;;
21014;SDS011;19207;-23.482;-46.500;2023-01-16T01:48:29;12.63;;;5.60;;
21014;SDS011;19207;-23.482;-46.500;2023-01-16T01:51:25;11.12;;;5.43;;
21014;SDS011;19207;-23.482;-46.500;2023-01-16T01:54:16;11.50;;;5.60;;
21014;SDS011;19207;-23.482;-46.500;2023-01-16T01:57:14;11.85;;;6.55;;
21014;SDS011;19207;-23.482;-46.500;2023-01-16T02:00:08;14.40;;;7.55;;
21014;SDS011;19207;-23.482;-46.500;2023-01-16T02:05:46;12.77;;;4.95;;
21014;SDS011;19207;-23.482;-46.500;2023-01-16T02:08:34;8.27;;;4.70;;
21014;SDS011;19207;-23.482;-46.500;2023-01-16T02:12:05;6.40;;;3.65;;
21014;SDS011;19207;-23.482;-46.500;2023-01-16T02:14:33;6.65;;;3.60;;
21014;SDS011;19207;-23.482;-46.500;2023-01-16T02:17:19;4.22;;;3.40;;
21014;SDS011;19207;-23.482;-46.500;2023-01-16T02:20:25;3.35;;;3.05;;
21014;SDS011;19207;-23.482;-46.500;2023-01-16T02:23:17;3.62;;;2.90;;
21014;SDS011;19207;-23.482;-46.500;2023-01-16T02:29:15;3.20;;;2.75;;
21014;SDS011;19207;-23.482;-46.500;2023-01-16T02:32:08;4.37;;;3.45;;
21014;SDS011;19207;-23.482;-46.500;2023-01-16T02:37:59;5.95;;;3.90;;
21014;SDS011;19207;-23.482;-46.500;2023-01-16T02:49:40;4.37;;;2.90;;
21014;SDS011;19207;-23.482;-46.500;2023-01-16T02:55:34;4.32;;;3.00;;
21014;SDS011;19207;-23.482;-46.500;2023-01-16T02:58:21;11.70;;;3.92;;
21014;SDS011;19207;-23.482;-46.500;2023-01-16T03:01:08;17.45;;;6.30;;
21014;SDS011;19207;-23.482;-46.500;2023-01-16T03:06:49;11.23;;;5.78;;
21014;SDS011;19207;-23.482;-46.500;2023-01-16T03:21:09;11.52;;;5.53;;
21014;SDS011;19207;-23.482;-46.500;2023-01-16T03:23:59;11.80;;;5.82;;
21014;SDS011;19207;-23.482;-46.500;2023-01-16T03:26:48;10.05;;;6.15;;
21014;SDS011;19207;-23.482;-46.500;2023-01-16T03:29:39;9.32;;;5.95;;
21014;SDS011;19207;-23.482;-46.500;2023-01-16T03:35:16;11.20;;;6.43;;
21014;SDS011;19207;-23.482;-46.500;2023-01-16T03:38:07;10.65;;;6.12;;
21014;SDS011;19207;-23.482;-46.500;2023-01-16T03:40:56;11.32;;;6.03;;
21014;SDS011;19207;-23.482;-46.500;2023-01-16T03:43:47;12.20;;;6.43;;
21014;SDS011;19207;-23.482;-46.500;2023-01-16T03:46:39;17.12;;;7.20;;
21014;SDS011;19207;-23.482;-46.500;2023-01-16T03:49:28;12.57;;;6.95;;
21014;SDS011;19207;-23.482;-46.500;2023-01-16T03:52:17;15.63;;;6.80;;
21014;SDS011;19207;-23.482;-46.500;2023-01-16T03:57:54;17.40;;;6.28;;
21014;SDS011;19207;-23.482;-46.500;2023-01-16T04:00:50;11.80;;;6.15;;
21014;SDS011;19207;-23.482;-46.500;2023-01-16T04:03:41;12.52;;;6.35;;
21014;SDS011;19207;-23.482;-46.500;2023-01-16T04:06:33;14.90;;;7.18;;
21014;SDS011;19207;-23.482;-46.500;2023-01-16T04:09:26;8.57;;;6.30;;
21014;SDS011;19207;-23.482;-46.500;2023-01-16T04:12:13;10.20;;;6.97;;
21014;SDS011;19207;-23.482;-46.500;2023-01-16T04:15:05;11.60;;;6.68;;
21014;SDS011;19207;-23.482;-46.500;2023-01-16T04:17:52;10.82;;;6.28;;
21014;SDS011;19207;-23.482;-46.500;2023-01-16T04:20:39;12.75;;;6.25;;
21014;SDS011;19207;-23.482;-46.500;2023-01-16T04:23:28;13.80;;;7.55;;
21014;SDS011;19207;-23.482;-46.500;2023-01-16T04:26:15;22.73;;;10.00;;
21014;SDS011;19207;-23.482;-46.500;2023-01-16T04:29:02;26.60;;;10.77;;
21014;SDS011;19207;-23.482;-46.500;2023-01-16T04:31:48;26.75;;;11.70;;
21014;SDS011;19207;-23.482;-46.500;2023-01-16T04:34:35;26.37;;;11.48;;
21014;SDS011;19207;-23.482;-46.500;2023-01-16T04:37:21;24.12;;;13.00;;
21014;SDS011;19207;-23.482;-46.500;2023-01-16T04:40:10;23.83;;;13.02;;
21014;SDS011;19207;-23.482;-46.500;2023-01-16T04:42:57;21.27;;;12.77;;
21014;SDS011;19207;-23.482;-46.500;2023-01-16T04:45:43;25.05;;;13.43;;
21014;SDS011;19207;-23.482;-46.500;2023-01-16T04:48:32;23.25;;;12.85;;
21014;SDS011;19207;-23.482;-46.500;2023-01-16T04:51:18;22.87;;;12.80;;
21014;SDS011;19207;-23.482;-46.500;2023-01-16T04:54:06;28.62;;;11.18;;
21014;SDS011;19207;-23.482;-46.500;2023-01-16T04:56:53;19.52;;;10.60;;
21014;SDS011;19207;-23.482;-46.500;2023-01-16T04:59:40;16.42;;;10.13;;
21014;SDS011;19207;-23.482;-46.500;2023-01-16T05:02:26;17.37;;;9.82;;
21014;SDS011;19207;-23.482;-46.500;2023-01-16T05:05:13;24.25;;;9.82;;
21014;SDS011;19207;-23.482;-46.500;2023-01-16T05:08:00;23.95;;;11.93;;
21014;SDS011;19207;-23.482;-46.500;2023-01-16T05:11:02;17.42;;;9.38;;
21014;SDS011;19207;-23.482;-46.500;2023-01-16T05:13:49;20.27;;;8.70;;
21014;SDS011;19207;-23.482;-46.500;2023-01-16T05:16:36;13.68;;;8.23;;
21014;SDS011;19207;-23.482;-46.500;2023-01-16T05:19:22;13.35;;;7.65;;
21014;SDS011;19207;-23.482;-46.500;2023-01-16T05:22:09;18.05;;;9.85;;
21014;SDS011;19207;-23.482;-46.500;2023-01-16T05:24:56;19.17;;;9.48;;
21014;SDS011;19207;-23.482;-46.500;2023-01-16T05:27:48;25.95;;;15.15;;
21014;SDS011;19207;-23.482;-46.500;2023-01-16T05:30:35;25.67;;;12.48;;
21014;SDS011;19207;-23.482;-46.500;2023-01-16T05:33:21;32.35;;;14.93;;
21014;SDS011;19207;-23.482;-46.500;2023-01-16T05:36:08;24.48;;;13.95;;
21014;SDS011;19207;-23.482;-46.500;2023-01-16T05:38:54;28.62;;;13.35;;
21014;SDS011;19207;-23.482;-46.500;2023-01-16T05:41:40;21.83;;;12.05;;
21014;SDS011;19207;-23.482;-46.500;2023-01-16T05:44:29;34.08;;;13.68;;
21014;SDS011;19207;-23.482;-46.500;2023-01-16T05:47:16;23.80;;;12.27;;
21014;SDS011;19207;-23.482;-46.500;2023-01-16T05:50:03;19.55;;;10.68;;
21014;SDS011;19207;-23.482;-46.500;2023-01-16T05:52:50;18.85;;;10.43;;
21014;SDS011;19207;-23.482;-46.500;2023-01-16T05:55:39;20.37;;;9.85;;
21014;SDS011;19207;-23.482;-46.500;2023-01-16T05:58:28;21.65;;;9.73;;
21014;SDS011;19207;-23.482;-46.500;2023-01-16T06:01:14;27.00;;;11.65;;
21014;SDS011;19207;-23.482;-46.500;2023-01-16T06:04:01;23.12;;;12.05;;
21014;SDS011;19207;-23.482;-46.500;2023-01-16T06:06:47;21.05;;;11.07;;
21014;SDS011;19207;-23.482;-46.500;2023-01-16T06:09:34;21.08;;;9.63;;
21014;SDS011;19207;-23.482;-46.500;2023-01-16T06:12:21;19.35;;;9.02;;
21014;SDS011;19207;-23.482;-46.500;2023-01-16T06:15:07;24.48;;;9.13;;
21014;SDS011;19207;-23.482;-46.500;2023-01-16T06:17:54;17.70;;;8.63;;
21014;SDS011;19207;-23.482;-46.500;2023-01-16T06:20:41;14.68;;;8.77;;
21014;SDS011;19207;-23.482;-46.500;2023-01-16T06:23:27;14.93;;;8.68;;
21014;SDS011;19207;-23.482;-46.500;2023-01-16T06:26:15;19.55;;;9.07;;
21014;SDS011;19207;-23.482;-46.500;2023-01-16T06:29:02;15.82;;;8.55;;
21014;SDS011;19207;-23.482;-46.500;2023-01-16T06:31:49;19.42;;;9.10;;
21014;SDS011;19207;-23.482;-46.500;2023-01-16T06:34:36;15.90;;;8.50;;
21014;SDS011;19207;-23.482;-46.500;2023-01-16T06:37:22;18.17;;;8.20;;
21014;SDS011;19207;-23.482;-46.500;2023-01-16T06:40:10;14.23;;;7.93;;
21014;SDS011;19207;-23.482;-46.500;2023-01-16T06:42:57;17.55;;;7.82;;
21014;SDS011;19207;-23.482;-46.500;2023-01-16T06:45:43;23.10;;;7.90;;
21014;SDS011;19207;-23.482;-46.500;2023-01-16T06:48:30;14.75;;;7.28;;
21014;SDS011;19207;-23.482;-46.500;2023-01-16T06:51:17;13.82;;;7.10;;
21014;SDS011;19207;-23.482;-46.500;2023-01-16T06:54:03;13.95;;;6.85;;
21014;SDS011;19207;-23.482;-46.500;2023-01-16T06:56:50;17.42;;;7.45;;
21014;SDS011;19207;-23.482;-46.500;2023-01-16T06:59:37;16.87;;;7.75;;
21014;SDS011;19207;-23.482;-46.500;2023-01-16T07:02:24;13.62;;;6.32;;
21014;SDS011;19207;-23.482;-46.500;2023-01-16T07:05:10;13.10;;;6.90;;
21014;SDS011;19207;-23.482;-46.500;2023-01-16T07:07:58;22.50;;;6.93;;
21014;SDS011;19207;-23.482;-46.500;2023-01-16T07:10:45;13.15;;;6.20;;
21014;SDS011;19207;-23.482;-46.500;2023-01-16T07:13:32;23.55;;;6.90;;
21014;SDS011;19207;-23.482;-46.500;2023-01-16T07:16:19;27.13;;;6.53;;
21014;SDS011;19207;-23.482;-46.500;2023-01-16T07:19:24;16.98;;;7.05;;
21014;SDS011;19207;-23.482;-46.500;2023-01-16T07:22:29;18.73;;;9.02;;
21014;SDS011;19207;-23.482;-46.500;2023-01-16T07:25:33;23.27;;;10.32;;
21014;SDS011;19207;-23.482;-46.500;2023-01-16T07:28:21;28.38;;;9.77;;
21014;SDS011;19207;-23.482;-46.500;2023-01-16T07:31:08;20.48;;;8.90;;
21014;SDS011;19207;-23.482;-46.500;2023-01-16T07:33:55;15.00;;;7.45;;
21014;SDS011;19207;-23.482;-46.500;2023-01-16T07:36:42;23.12;;;8.30;;
21014;SDS011;19207;-23.482;-46.500;2023-01-16T07:39:28;20.45;;;7.93;;
21014;SDS011;19207;-23.482;-46.500;2023-01-16T07:42:15;17.33;;;8.02;;
21014;SDS011;19207;-23.482;-46.500;2023-01-16T07:45:02;17.45;;;7.20;;
21014;SDS011;19207;-23.482;-46.500;2023-01-16T07:47:49;16.52;;;7.25;;
21014;SDS011;19207;-23.482;-46.500;2023-01-16T07:50:36;16.25;;;7.53;;
21014;SDS011;19207;-23.482;-46.500;2023-01-16T07:53:23;15.43;;;7.20;;
21014;SDS011;19207;-23.482;-46.500;2023-01-16T07:56:10;13.00;;;7.00;;
21014;SDS011;19207;-23.482;-46.500;2023-01-16T07:58:58;18.27;;;7.87;;
21014;SDS011;19207;-23.482;-46.500;2023-01-16T08:01:45;26.85;;;7.80;;
21014;SDS011;19207;-23.482;-46.500;2023-01-16T08:04:32;15.27;;;7.45;;
21014;SDS011;19207;-23.482;-46.500;2023-01-16T08:07:19;15.07;;;7.35;;
21014;SDS011;19207;-23.482;-46.500;2023-01-16T08:10:05;17.95;;;8.40;;
21014;SDS011;19207;-23.482;-46.500;2023-01-16T08:12:52;17.58;;;8.40;;
21014;SDS011;19207;-23.482;-46.500;2023-01-16T08:15:39;18.62;;;8.82;;
21014;SDS011;19207;-23.482;-46.500;2023-01-16T08:18:27;18.30;;;8.00;;
21014;SDS011;19207;-23.482;-46.500;2023-01-16T08:21:14;23.48;;;9.45;;
21014;SDS011;19207;-23.482;-46.500;2023-01-16T08:24:01;20.30;;;8.38;;
21014;SDS011;19207;-23.482;-46.500;2023-01-16T08:26:48;22.85;;;9.52;;
21014;SDS011;19207;-23.482;-46.500;2023-01-16T08:29:34;20.40;;;8.55;;
21014;SDS011;19207;-23.482;-46.500;2023-01-16T08:32:22;19.45;;;9.30;;
21014;SDS011;19207;-23.482;-46.500;2023-01-16T08:35:09;20.83;;;8.93;;
21014;SDS011;19207;-23.482;-46.500;2023-01-16T08:37:55;22.13;;;9.93;;
21014;SDS011;19207;-23.482;-46.500;2023-01-16T08:40:42;20.88;;;9.30;;
21014;SDS011;19207;-23.482;-46.500;2023-01-16T08:43:28;22.85;;;9.63;;
21014;SDS011;19207;-23.482;-46.500;2023-01-16T08:46:33;23.87;;;9.48;;
21014;SDS011;19207;-23.482;-46.500;2023-01-16T08:49:38;21.60;;;9.13;;
21014;SDS011;19207;-23.482;-46.500;2023-01-16T08:52:44;19.12;;;9.50;;
21014;SDS011;19207;-23.482;-46.500;2023-01-16T08:55:31;28.05;;;10.82;;
21014;SDS011;19207;-23.482;-46.500;2023-01-16T08:58:18;23.38;;;11.68;;
21014;SDS011;19207;-23.482;-46.500;2023-01-16T09:01:07;24.35;;;11.20;;
21014;SDS011;19207;-23.482;-46.500;2023-01-16T09:03:54;20.77;;;10.00;;
21014;SDS011;19207;-23.482;-46.500;2023-01-16T09:06:41;22.65;;;11.05;;
21014;SDS011;19207;-23.482;-46.500;2023-01-16T09:09:28;18.00;;;10.27;;
21014;SDS011;19207;-23.482;-46.500;2023-01-16T09:12:15;18.02;;;9.55;;
21014;SDS011;19207;-23.482;-46.500;2023-01-16T09:15:19;23.30;;;10.30;;
21014;SDS011;19207;-23.482;-46.500;2023-01-16T09:18:06;22.40;;;10.18;;
21014;SDS011;19207;-23.482;-46.500;2023-01-16T09:20:53;23.83;;;9.50;;
21014;SDS011;19207;-23.482;-46.500;2023-01-16T09:23:40;17.12;;;9.70;;
21014;SDS011;19207;-23.482;-46.500;2023-01-16T09:26:26;20.33;;;9.30;;
21014;SDS011;19207;-23.482;-46.500;2023-01-16T09:29:13;17.15;;;8.43;;
21014;SDS011;19207;-23.482;-46.500;2023-01-16T09:32:00;20.73;;;8.88;;
21014;SDS011;19207;-23.482;-46.500;2023-01-16T09:34:53;21.85;;;8.93;;
21014;SDS011;19207;-23.482;-46.500;2023-01-16T09:37:41;23.65;;;8.90;;
21014;SDS011;19207;-23.482;-46.500;2023-01-16T09:40:28;20.27;;;8.23;;
21014;SDS011;19207;-23.482;-46.500;2023-01-16T09:46:22;16.77;;;8.23;;
21014;SDS011;19207;-23.482;-46.500;2023-01-16T09:49:20;14.80;;;7.68;;
21014;SDS011;19207;-23.482;-46.500;2023-01-16T09:52:10;19.92;;;8.00;;
21014;SDS011;19207;-23.482;-46.500;2023-01-16T09:58:27;14.87;;;7.37;;
21014;SDS011;19207;-23.482;-46.500;2023-01-16T10:01:31;22.35;;;8.52;;
21014;SDS011;19207;-23.482;-46.500;2023-01-16T10:04:20;14.10;;;6.37;;
21014;SDS011;19207;-23.482;-46.500;2023-01-16T10:25:16;16.35;;;7.18;;
21014;SDS011;19207;-23.482;-46.500;2023-01-16T10:31:26;18.75;;;7.95;;
21014;SDS011;19207;-23.482;-46.500;2023-01-16T10:37:05;14.75;;;10.15;;
21014;SDS011;19207;-23.482;-46.500;2023-01-16T10:39:52;12.77;;;7.12;;
21014;SDS011;19207;-23.482;-46.500;2023-01-16T10:42:39;18.15;;;8.50;;
21014;SDS011;19207;-23.482;-46.500;2023-01-16T10:45:47;19.12;;;8.18;;
21014;SDS011;19207;-23.482;-46.500;2023-01-16T10:48:53;14.23;;;7.50;;
21014;SDS011;19207;-23.482;-46.500;2023-01-16T10:51:58;17.48;;;7.97;;
21014;SDS011;19207;-23.482;-46.500;2023-01-16T10:54:45;18.52;;;8.52;;
21014;SDS011;19207;-23.482;-46.500;2023-01-16T10:57:33;20.17;;;8.75;;
21014;SDS011;19207;-23.482;-46.500;2023-01-16T11:00:21;20.23;;;8.35;;
21014;SDS011;19207;-23.482;-46.500;2023-01-16T11:03:33;17.65;;;8.63;;
21014;SDS011;19207;-23.482;-46.500;2023-01-16T11:06:23;17.92;;;8.52;;
21014;SDS011;19207;-23.482;-46.500;2023-01-16T11:12:02;17.60;;;8.55;;
21014;SDS011;19207;-23.482;-46.500;2023-01-16T11:15:13;16.00;;;8.40;;
21014;SDS011;19207;-23.482;-46.500;2023-01-16T11:18:19;18.45;;;9.40;;
21014;SDS011;19207;-23.482;-46.500;2023-01-16T11:21:17;23.70;;;8.60;;
21014;SDS011;19207;-23.482;-46.500;2023-01-16T11:26:59;23.20;;;10.80;;
21014;SDS011;19207;-23.482;-46.500;2023-01-16T11:29:48;22.75;;;9.80;;
21014;SDS011;19207;-23.482;-46.500;2023-01-16T11:32:38;17.42;;;9.00;;
21014;SDS011;19207;-23.482;-46.500;2023-01-16T11:35:34;19.15;;;9.07;;
21014;SDS011;19207;-23.482;-46.500;2023-01-16T11:38:22;21.15;;;9.23;;
21014;SDS011;19207;-23.482;-46.500;2023-01-16T11:41:09;16.48;;;8.90;;
21014;SDS011;19207;-23.482;-46.500;2023-01-16T11:47:12;21.05;;;7.80;;
21014;SDS011;19207;-23.482;-46.500;2023-01-16T11:49:59;18.15;;;7.72;;
21014;SDS011;19207;-23.482;-46.500;2023-01-16T11:52:45;16.33;;;8.57;;
21014;SDS011;19207;-23.482;-46.500;2023-01-16T11:55:38;16.15;;;8.13;;
21014;SDS011;19207;-23.482;-46.500;2023-01-16T12:08:11;12.95;;;7.18;;
21014;SDS011;19207;-23.482;-46.500;2023-01-16T12:11:13;12.80;;;6.25;;
21014;SDS011;19207;-23.482;-46.500;2023-01-16T12:20:04;23.67;;;8.38;;
21014;SDS011;19207;-23.482;-46.500;2023-01-16T12:25:54;15.75;;;8.10;;
21014;SDS011;19207;-23.482;-46.500;2023-01-16T12:34:56;19.55;;;8.57;;
21014;SDS011;19207;-23.482;-46.500;2023-01-16T12:47:47;17.00;;;7.85;;
21014;SDS011;19207;-23.482;-46.500;2023-01-16T13:03:03;20.42;;;9.65;;
21014;SDS011;19207;-23.482;-46.500;2023-01-16T13:05:56;26.75;;;11.70;;
21014;SDS011;19207;-23.482;-46.500;2023-01-16T13:08:44;27.13;;;8.55;;
21014;SDS011;19207;-23.482;-46.500;2023-01-16T13:11:38;16.65;;;8.75;;
21014;SDS011;19207;-23.482;-46.500;2023-01-16T13:14:45;27.17;;;24.33;;
21014;SDS011;19207;-23.482;-46.500;2023-01-16T13:18:16;10.38;;;6.15;;
21014;SDS011;19207;-23.482;-46.500;2023-01-16T13:20:43;16.58;;;6.40;;
21014;SDS011;19207;-23.482;-46.500;2023-01-16T13:26:50;11.20;;;4.90;;
21014;SDS011;19207;-23.482;-46.500;2023-01-16T13:29:41;19.23;;;5.30;;
21014;SDS011;19207;-23.482;-46.500;2023-01-16T13:32:37;16.30;;;5.05;;
21014;SDS011;19207;-23.482;-46.500;2023-01-16T13:38:28;9.63;;;4.60;;
21014;SDS011;19207;-23.482;-46.500;2023-01-16T13:41:22;9.13;;;4.57;;
21014;SDS011;19207;-23.482;-46.500;2023-01-16T13:44:17;12.82;;;4.75;;
21014;SDS011;19207;-23.482;-46.500;2023-01-16T13:47:29;7.15;;;4.05;;
21014;SDS011;19207;-23.482;-46.500;2023-01-16T13:53:07;12.75;;;4.82;;
21014;SDS011;19207;-23.482;-46.500;2023-01-16T13:56:04;5.72;;;3.47;;
21014;SDS011;19207;-23.482;-46.500;2023-01-16T13:58:57;4.50;;;3.12;;
21014;SDS011;19207;-23.482;-46.500;2023-01-16T14:04:31;5.55;;;2.87;;
21014;SDS011;19207;-23.482;-46.500;2023-01-16T14:13:42;4.12;;;2.95;;
21014;SDS011;19207;-23.482;-46.500;2023-01-16T14:16:30;5.15;;;3.10;;
21014;SDS011;19207;-23.482;-46.500;2023-01-16T14:19:22;7.45;;;3.42;;
21014;SDS011;19207;-23.482;-46.500;2023-01-16T14:22:16;7.47;;;3.62;;
21014;SDS011;19207;-23.482;-46.500;2023-01-16T14:25:03;6.32;;;3.17;;
21014;SDS011;19207;-23.482;-46.500;2023-01-16T14:27:52;9.90;;;3.90;;
21014;SDS011;19207;-23.482;-46.500;2023-01-16T14:30:39;5.40;;;2.80;;
21014;SDS011;19207;-23.482;-46.500;2023-01-16T14:33:26;9.95;;;2.90;;
21014;SDS011;19207;-23.482;-46.500;2023-01-16T14:36:13;5.95;;;3.17;;
21014;SDS011;19207;-23.482;-46.500;2023-01-16T14:39:00;6.68;;;3.40;;
21014;SDS011;19207;-23.482;-46.500;2023-01-16T14:41:48;6.62;;;3.20;;
21014;SDS011;19207;-23.482;-46.500;2023-01-16T14:48:15;5.55;;;3.95;;
21014;SDS011;19207;-23.482;-46.500;2023-01-16T14:54:30;11.15;;;3.25;;
21014;SDS011;19207;-23.482;-46.500;2023-01-16T14:57:36;9.50;;;3.20;;
21014;SDS011;19207;-23.482;-46.500;2023-01-16T15:00:25;4.40;;;3.08;;
21014;SDS011;19207;-23.482;-46.500;2023-01-16T15:03:19;4.10;;;3.00;;
21014;SDS011;19207;-23.482;-46.500;2023-01-16T15:06:07;9.50;;;2.90;;
21014;SDS011;19207;-23.482;-46.500;2023-01-16T15:08:55;5.15;;;2.90;;
21014;SDS011;19207;-23.482;-46.500;2023-01-16T15:11:44;4.32;;;3.22;;
21014;SDS011;19207;-23.482;-46.500;2023-01-16T15:14:53;6.90;;;3.30;;
21014;SDS011;19207;-23.482;-46.500;2023-01-16T15:17:40;7.12;;;3.22;;
21014;SDS011;19207;-23.482;-46.500;2023-01-16T15:20:46;7.85;;;2.65;;
21014;SDS011;19207;-23.482;-46.500;2023-01-16T15:23:51;6.50;;;2.65;;
21014;SDS011;19207;-23.482;-46.500;2023-01-16T15:26:51;4.12;;;2.90;;
21014;SDS011;19207;-23.482;-46.500;2023-01-16T15:29:47;4.82;;;3.55;;
21014;SDS011;19207;-23.482;-46.500;2023-01-16T15:35:39;4.45;;;2.70;;
21014;SDS011;19207;-23.482;-46.500;2023-01-16T15:38:26;3.95;;;2.60;;
21014;SDS011;19207;-23.482;-46.500;2023-01-16T15:41:13;4.05;;;2.90;;
21014;SDS011;19207;-23.482;-46.500;2023-01-16T15:43:59;3.33;;;2.80;;
21014;SDS011;19207;-23.482;-46.500;2023-01-16T15:47:14;3.33;;;2.90;;
21014;SDS011;19207;-23.482;-46.500;2023-01-16T15:53:05;3.30;;;2.70;;
21014;SDS011;19207;-23.482;-46.500;2023-01-16T15:56:00;3.58;;;2.72;;
21014;SDS011;19207;-23.482;-46.500;2023-01-16T15:58:47;3.17;;;2.80;;
21014;SDS011;19207;-23.482;-46.500;2023-01-16T16:01:34;4.05;;;3.00;;
21014;SDS011;19207;-23.482;-46.500;2023-01-16T16:04:20;3.28;;;2.87;;
21014;SDS011;19207;-23.482;-46.500;2023-01-16T16:07:08;3.70;;;2.80;;
21014;SDS011;19207;-23.482;-46.500;2023-01-16T16:09:56;4.57;;;2.67;;
21014;SDS011;19207;-23.482;-46.500;2023-01-16T16:12:44;6.07;;;4.03;;
21014;SDS011;19207;-23.482;-46.500;2023-01-16T16:15:30;12.50;;;11.40;;
21014;SDS011;19207;-23.482;-46.500;2023-01-16T16:18:35;4.68;;;3.10;;
21014;SDS011;19207;-23.482;-46.500;2023-01-16T16:21:21;4.62;;;2.92;;
21014;SDS011;19207;-23.482;-46.500;2023-01-16T16:24:10;6.30;;;3.03;;
21014;SDS011;19207;-23.482;-46.500;2023-01-16T16:26:58;3.10;;;2.80;;
21014;SDS011;19207;-23.482;-46.500;2023-01-16T16:29:50;3.50;;;2.85;;
21014;SDS011;19207;-23.482;-46.500;2023-01-16T16:32:38;4.37;;;2.90;;
21014;SDS011;19207;-23.482;-46.500;2023-01-16T16:35:31;3.10;;;2.80;;
21014;SDS011;19207;-23.482;-46.500;2023-01-16T16:38:20;28.52;;;26.15;;
21014;SDS011;19207;-23.482;-46.500;2023-01-16T16:43:57;3.37;;;2.87;;
21014;SDS011;19207;-23.482;-46.500;2023-01-16T16:46:46;14.87;;;13.52;;
21014;SDS011;19207;-23.482;-46.500;2023-01-16T16:49:35;6.47;;;3.17;;
21014;SDS011;19207;-23.482;-46.500;2023-01-16T16:52:27;3.42;;;3.12;;
21014;SDS011;19207;-23.482;-46.500;2023-01-16T16:55:25;3.67;;;3.20;;
21014;SDS011;19207;-23.482;-46.500;2023-01-16T16:58:14;5.18;;;3.20;;
21014;SDS011;19207;-23.482;-46.500;2023-01-16T17:01:01;3.22;;;2.90;;
21014;SDS011;19207;-23.482;-46.500;2023-01-16T17:03:49;4.15;;;2.97;;
21014;SDS011;19207;-23.482;-46.500;2023-01-16T17:06:36;4.72;;;3.17;;
21014;SDS011;19207;-23.482;-46.500;2023-01-16T17:09:24;3.70;;;3.37;;
21014;SDS011;19207;-23.482;-46.500;2023-01-16T17:12:16;3.78;;;3.12;;
21014;SDS011;19207;-23.482;-46.500;2023-01-16T17:15:05;4.60;;;3.15;;
21014;SDS011;19207;-23.482;-46.500;2023-01-16T17:17:52;5.78;;;3.08;;
21014;SDS011;19207;-23.482;-46.500;2023-01-16T17:20:42;3.72;;;3.05;;
21014;SDS011;19207;-23.482;-46.500;2023-01-16T17:23:28;4.43;;;3.60;;
21014;SDS011;19207;-23.482;-46.500;2023-01-16T17:26:15;4.00;;;3.20;;
21014;SDS011;19207;-23.482;-46.500;2023-01-16T17:29:01;3.55;;;3.25;;
21014;SDS011;19207;-23.482;-46.500;2023-01-16T17:31:48;4.47;;;3.20;;
21014;SDS011;19207;-23.482;-46.500;2023-01-16T17:34:34;5.30;;;3.53;;
21014;SDS011;19207;-23.482;-46.500;2023-01-16T17:37:21;5.22;;;3.42;;
21014;SDS011;19207;-23.482;-46.500;2023-01-16T17:40:08;11.68;;;3.75;;
21014;SDS011;19207;-23.482;-46.500;2023-01-16T17:42:55;3.35;;;3.05;;
21014;SDS011;19207;-23.482;-46.500;2023-01-16T17:46:01;8.32;;;3.40;;
21014;SDS011;19207;-23.482;-46.500;2023-01-16T17:48:49;4.53;;;3.40;;
21014;SDS011;19207;-23.482;-46.500;2023-01-16T17:51:36;7.10;;;4.15;;
21014;SDS011;19207;-23.482;-46.500;2023-01-16T17:54:23;10.80;;;4.62;;
21014;SDS011;19207;-23.482;-46.500;2023-01-16T17:57:32;8.00;;;3.87;;
21014;SDS011;19207;-23.482;-46.500;2023-01-16T18:00:20;7.00;;;3.95;;
21014;SDS011;19207;-23.482;-46.500;2023-01-16T18:03:07;6.43;;;3.60;;
21014;SDS011;19207;-23.482;-46.500;2023-01-16T18:05:57;8.07;;;3.90;;
21014;SDS011;19207;-23.482;-46.500;2023-01-16T18:08:48;4.28;;;3.37;;
21014;SDS011;19207;-23.482;-46.500;2023-01-16T18:11:35;5.60;;;3.80;;
21014;SDS011;19207;-23.482;-46.500;2023-01-16T18:14:40;26.98;;;17.15;;
21014;SDS011;19207;-23.482;-46.500;2023-01-16T18:17:45;26.77;;;16.77;;
21014;SDS011;19207;-23.482;-46.500;2023-01-16T18:20:31;26.30;;;16.90;;
21014;SDS011;19207;-23.482;-46.500;2023-01-16T18:23:17;26.85;;;18.80;;
21014;SDS011;19207;-23.482;-46.500;2023-01-16T18:26:04;29.52;;;18.85;;
21014;SDS011;19207;-23.482;-46.500;2023-01-16T18:28:51;31.70;;;16.87;;
21014;SDS011;19207;-23.482;-46.500;2023-01-16T18:31:38;36.58;;;22.08;;
21014;SDS011;19207;-23.482;-46.500;2023-01-16T18:37:38;46.85;;;29.10;;
21014;SDS011;19207;-23.482;-46.500;2023-01-16T18:40:25;50.05;;;31.30;;
21014;SDS011;19207;-23.482;-46.500;2023-01-16T18:43:30;48.75;;;29.87;;
21014;SDS011;19207;-23.482;-46.500;2023-01-16T18:46:35;44.47;;;28.08;;
21014;SDS011;19207;-23.482;-46.500;2023-01-16T18:49:39;52.55;;;35.22;;
21014;SDS011;19207;-23.482;-46.500;2023-01-16T18:52:45;11.52;;;6.55;;